createdAt,value
2022-07-25T00:02:07.990Z,29.80
2022-07-25T00:07:10.735Z,29.90
2022-07-25T00:12:12.499Z,30.00
2022-07-25T00:17:14.476Z,29.70
2022-07-25T00:22:16.205Z,29.70
2022-07-25T00:27:17.979Z,29.60
2022-07-25T00:32:19.745Z,29.40
2022-07-25T00:37:21.527Z,29.60
2022-07-25T00:42:23.353Z,29.40
2022-07-25T00:47:25.226Z,29.70
2022-07-25T00:52:27.556Z,29.30
2022-07-25T00:57:29.296Z,29.20
2022-07-25T01:02:31.068Z,29.10
2022-07-25T01:07:33.105Z,29.10
2022-07-25T01:13:04.714Z,29.00
2022-07-25T01:18:06.608Z,29.00
2022-07-25T01:23:08.360Z,28.80
2022-07-25T01:28:10.094Z,29.00
2022-07-25T01:33:19.914Z,28.90
2022-07-25T01:38:21.657Z,28.60
2022-07-25T01:43:23.440Z,28.90
2022-07-25T01:48:25.204Z,28.80
2022-07-25T01:53:26.967Z,28.80
2022-07-25T01:58:29.149Z,28.70
2022-07-25T02:03:30.959Z,28.80
2022-07-25T02:08:32.879Z,28.70
2022-07-25T02:13:35.599Z,28.60
2022-07-25T02:18:37.328Z,28.60
2022-07-25T02:23:39.088Z,28.70
2022-07-25T02:28:40.917Z,29.00
2022-07-25T02:33:43.056Z,28.90
2022-07-25T02:38:44.898Z,29.00
2022-07-25T02:43:46.752Z,28.40
2022-07-25T02:48:48.602Z,28.30
2022-07-25T02:53:58.743Z,28.00
2022-07-25T02:59:00.831Z,27.90
2022-07-25T03:04:02.783Z,28.00
2022-07-25T03:09:04.597Z,28.70
2022-07-25T03:14:08.871Z,28.40
2022-07-25T03:19:10.797Z,28.30
2022-07-25T03:24:12.578Z,28.10
2022-07-25T03:29:14.306Z,28.20
2022-07-25T03:34:16.111Z,28.30
2022-07-25T03:39:17.887Z,28.30
2022-07-25T03:44:20.255Z,28.20
2022-07-25T03:49:21.945Z,28.00
2022-07-25T03:54:23.876Z,28.20
2022-07-25T03:59:26.592Z,28.00
2022-07-25T04:04:28.316Z,27.90
2022-07-25T04:09:30.995Z,27.80
2022-07-25T04:14:35.441Z,27.80
2022-07-25T04:19:37.267Z,27.60
2022-07-25T04:24:39.005Z,27.70
2022-07-25T04:29:40.734Z,27.70
2022-07-25T04:34:42.671Z,27.80
2022-07-25T04:39:44.371Z,27.60
2022-07-25T04:44:46.103Z,27.80
2022-07-25T04:49:47.827Z,27.70
2022-07-25T04:54:49.576Z,27.80
2022-07-25T04:59:51.290Z,28.10
2022-07-25T05:04:53.247Z,28.10
2022-07-25T05:09:55.188Z,28.20
2022-07-25T05:14:56.949Z,28.10
2022-07-25T05:19:58.999Z,27.50
2022-07-25T05:25:00.750Z,27.20
2022-07-25T05:30:02.646Z,27.50
2022-07-25T05:35:06.126Z,27.60
2022-07-25T05:40:08.485Z,27.20
2022-07-25T05:45:10.572Z,27.50
2022-07-25T05:50:12.332Z,27.70
2022-07-25T05:55:14.135Z,27.70
2022-07-25T06:00:16.155Z,28.10
2022-07-25T06:05:17.998Z,28.10
2022-07-25T06:10:20.205Z,28.30
2022-07-25T06:15:23.171Z,28.60
2022-07-25T06:20:28.848Z,28.10
2022-07-25T06:25:31.016Z,28.30
2022-07-25T06:30:33.583Z,29.00
2022-07-25T06:35:35.562Z,28.90
2022-07-25T06:40:37.342Z,29.10
2022-07-25T06:45:39.115Z,29.30
2022-07-25T06:50:40.976Z,29.20
2022-07-25T06:55:42.814Z,29.80
2022-07-25T07:00:44.611Z,30.10
2022-07-25T07:05:46.376Z,30.00
2022-07-25T07:10:48.086Z,30.40
2022-07-25T07:15:50.636Z,29.80
2022-07-25T07:20:52.797Z,30.50
2022-07-25T07:25:54.542Z,31.00
2022-07-25T07:31:15.863Z,31.00
2022-07-25T07:36:18.788Z,31.20
2022-07-25T07:41:20.678Z,31.60
2022-07-25T07:46:22.459Z,31.30
2022-07-25T07:51:24.369Z,31.80
2022-07-25T07:56:26.068Z,31.70
2022-07-25T08:01:27.982Z,32.10
2022-07-25T08:06:29.756Z,31.80
2022-07-25T08:11:31.495Z,31.80
2022-07-25T08:16:33.826Z,32.10
2022-07-25T08:21:35.581Z,32.40
2022-07-25T08:26:37.504Z,32.60
2022-07-25T08:31:39.356Z,33.10
2022-07-25T08:36:41.114Z,32.50
2022-07-25T08:41:43.491Z,32.80
2022-07-25T08:46:46.237Z,33.20
2022-07-25T08:51:51.595Z,33.50
2022-07-25T08:56:54.264Z,33.60
2022-07-25T09:01:55.989Z,33.20
2022-07-25T09:06:57.712Z,33.90
2022-07-25T09:11:59.479Z,33.40
2022-07-25T09:17:06.886Z,33.30
2022-07-25T09:22:23.890Z,34.20
2022-07-25T09:27:25.628Z,34.80
2022-07-25T09:32:27.357Z,35.00
2022-07-25T09:37:29.136Z,35.30
2022-07-25T09:42:32.652Z,34.90
2022-07-25T09:47:36.341Z,34.70
2022-07-25T09:52:38.943Z,34.80
2022-07-25T09:57:41.179Z,34.90
2022-07-25T10:02:50.651Z,35.20
2022-07-25T10:07:54.228Z,35.20
2022-07-25T10:13:11.330Z,35.10
2022-07-25T10:18:15.025Z,36.10
2022-07-25T10:23:19.479Z,35.20
2022-07-25T10:28:21.188Z,35.60
2022-07-25T10:33:25.323Z,35.60
2022-07-25T10:38:28.599Z,36.40
2022-07-25T10:43:37.744Z,35.70
2022-07-25T10:48:39.629Z,35.80
2022-07-25T10:53:48.787Z,35.80
2022-07-25T10:59:01.795Z,36.20
2022-07-25T11:04:15.347Z,36.30
2022-07-25T11:09:26.855Z,36.80
2022-07-25T11:14:32.518Z,36.90
2022-07-25T11:19:34.257Z,37.10
2022-07-25T11:24:44.894Z,37.10
2022-07-25T11:29:46.704Z,36.90
2022-07-25T11:34:54.110Z,37.10
2022-07-25T11:39:56.370Z,37.00
2022-07-25T11:44:58.117Z,37.30
2022-07-25T11:50:02.167Z,37.30
2022-07-25T11:55:13.480Z,37.20
2022-07-25T12:00:20.763Z,37.60
2022-07-25T12:05:31.328Z,37.60
2022-07-25T12:10:35.102Z,38.10
2022-07-25T12:15:39.321Z,37.20
2022-07-25T12:20:42.933Z,37.70
2022-07-25T12:25:46.253Z,38.30
2022-07-25T12:30:52.862Z,37.80
2022-07-25T12:35:58.024Z,38.30
2022-07-25T12:40:59.777Z,38.40
2022-07-25T12:46:01.578Z,38.50
2022-07-25T12:51:03.398Z,37.90
2022-07-25T12:56:05.368Z,37.90
2022-07-25T13:01:07.141Z,38.40
2022-07-25T13:06:08.934Z,38.10
2022-07-25T13:11:10.649Z,38.80
2022-07-25T13:16:13.137Z,38.40
2022-07-25T13:21:15.093Z,38.80
2022-07-25T13:26:16.839Z,39.10
2022-07-25T13:31:21.566Z,37.70
2022-07-25T13:36:23.435Z,38.50
2022-07-25T13:41:25.272Z,39.20
2022-07-25T13:46:27.491Z,39.50
2022-07-25T13:51:29.194Z,38.90
2022-07-25T13:56:32.978Z,38.90
2022-07-25T14:01:34.850Z,39.80
2022-07-25T14:06:36.591Z,39.50
2022-07-25T14:11:38.506Z,39.40
2022-07-25T14:16:40.290Z,39.80
2022-07-25T14:21:42.055Z,39.70
2022-07-25T14:26:43.822Z,38.90
2022-07-25T14:31:45.627Z,38.80
2022-07-25T14:36:47.430Z,38.40
2022-07-25T14:41:49.170Z,38.90
2022-07-25T14:46:50.966Z,38.60
2022-07-25T14:51:52.756Z,38.80
2022-07-25T14:56:55.954Z,38.40
2022-07-25T15:01:57.763Z,38.50
2022-07-25T15:07:00.371Z,38.60
2022-07-25T15:12:02.102Z,38.80
2022-07-25T15:17:03.968Z,38.30
2022-07-25T15:22:05.741Z,38.50
2022-07-25T15:27:07.532Z,38.70
2022-07-25T15:32:09.308Z,38.40
2022-07-25T15:37:11.118Z,38.90
2022-07-25T15:42:12.871Z,38.70
2022-07-25T15:47:14.722Z,38.70
2022-07-25T15:52:16.625Z,38.80
2022-07-25T15:57:18.635Z,38.50
2022-07-25T16:02:20.329Z,38.30
2022-07-25T16:07:22.292Z,38.00
2022-07-25T16:12:28.003Z,37.50
2022-07-25T16:17:31.273Z,37.30
2022-07-25T16:22:36.166Z,37.20
2022-07-25T16:27:37.910Z,36.70
2022-07-25T16:32:39.605Z,36.60
2022-07-25T16:37:42.263Z,36.40
2022-07-25T16:42:44.008Z,36.30
2022-07-25T16:47:45.751Z,36.10
2022-07-25T16:52:47.519Z,36.00
2022-07-25T16:57:49.352Z,35.90
2022-07-25T17:02:51.117Z,35.90
2022-07-25T17:07:58.986Z,35.70
2022-07-25T17:13:01.319Z,35.60
2022-07-25T17:18:04.056Z,35.60
2022-07-25T17:23:05.839Z,35.40
2022-07-25T17:28:08.250Z,35.30
2022-07-25T17:33:09.972Z,35.50
2022-07-25T17:38:12.549Z,35.50
2022-07-25T17:43:16.269Z,35.30
2022-07-25T17:48:18.056Z,35.30
2022-07-25T17:53:19.828Z,35.10
2022-07-25T17:58:21.580Z,34.90
2022-07-25T18:03:23.536Z,34.70
2022-07-25T18:08:25.333Z,34.60
2022-07-25T18:13:27.055Z,34.20
2022-07-25T18:18:28.762Z,34.10
2022-07-25T18:23:30.511Z,33.90
2022-07-25T18:28:32.331Z,34.20
2022-07-25T18:33:34.114Z,34.20
2022-07-25T18:38:36.669Z,34.30
2022-07-25T18:49:39.418Z,33.70
2022-07-25T18:54:41.145Z,33.50
2022-07-25T18:59:42.988Z,33.40
2022-07-25T19:04:44.843Z,33.60
2022-07-25T19:09:46.742Z,33.40
2022-07-25T19:14:48.476Z,33.50
2022-07-25T19:19:53.336Z,33.50
2022-07-25T19:24:55.172Z,33.30
2022-07-25T19:29:56.913Z,33.20
2022-07-25T19:34:58.699Z,33.20
2022-07-25T19:40:01.250Z,33.20
2022-07-25T19:45:03.234Z,33.20
2022-07-25T19:50:05.364Z,33.10
2022-07-25T19:55:07.612Z,33.10
2022-07-25T20:00:10.262Z,31.90
2022-07-25T20:05:12.351Z,31.80
2022-07-25T20:10:14.163Z,31.50
2022-07-25T20:15:19.822Z,31.20
2022-07-25T20:20:21.566Z,31.20
2022-07-25T20:25:23.298Z,31.10
2022-07-25T20:30:25.600Z,31.00
2022-07-25T20:35:31.022Z,30.50
2022-07-25T20:40:36.145Z,30.10
2022-07-25T20:45:39.681Z,29.60
2022-07-25T20:50:41.450Z,29.20
2022-07-25T20:55:43.185Z,28.90
2022-07-25T21:00:45.841Z,28.50
2022-07-25T21:05:48.154Z,28.20
2022-07-25T21:10:50.068Z,27.80
2022-07-25T21:15:51.886Z,26.90
2022-07-25T21:20:53.945Z,26.80
2022-07-25T21:25:56.255Z,27.20
2022-07-25T21:30:58.158Z,27.60
2022-07-25T21:35:59.920Z,28.60
2022-07-25T21:41:01.735Z,28.30
2022-07-25T21:46:03.534Z,28.20
2022-07-25T21:51:07.754Z,27.90
2022-07-25T21:56:09.704Z,27.50
2022-07-25T22:01:11.701Z,27.20
2022-07-25T22:06:13.549Z,26.80
2022-07-25T22:11:39.252Z,26.90
2022-07-25T22:16:37.229Z,27.60
2022-07-25T22:21:40.559Z,27.30
2022-07-25T22:26:42.704Z,27.80
2022-07-25T22:31:44.521Z,27.90
2022-07-25T22:36:46.296Z,28.40
2022-07-25T22:41:48.252Z,28.30
2022-07-25T22:46:49.997Z,28.10
2022-07-25T22:51:51.827Z,28.10
2022-07-25T22:56:53.582Z,27.30
2022-07-25T23:01:55.410Z,26.90
2022-07-25T23:06:57.124Z,26.30
2022-07-25T23:11:58.847Z,26.30
2022-07-25T23:17:01.069Z,26.10
2022-07-25T23:22:02.914Z,26.60
2022-07-25T23:27:04.932Z,27.70
2022-07-25T23:32:07.429Z,28.20
2022-07-25T23:37:09.236Z,26.50
2022-07-25T23:42:10.960Z,26.20
2022-07-25T23:47:13.288Z,26.30
2022-07-25T23:52:15.089Z,26.70
2022-07-25T23:57:16.882Z,26.20
